sensor_id;sensor_type;location;lat;lon;timestamp;P1;durP1;ratioP1;P2;durP2;ratioP2
39314;SDS011;28703;44.412;11.918;2023-07-29T00:01:52;83.45;;;78.30;;
39314;SDS011;28703;44.412;11.918;2023-07-29T00:04:19;87.07;;;81.72;;
39314;SDS011;28703;44.412;11.918;2023-07-29T00:06:45;92.95;;;87.20;;
39314;SDS011;28703;44.412;11.918;2023-07-29T00:09:11;70.38;;;65.63;;
39314;SDS011;28703;44.412;11.918;2023-07-29T00:11:37;83.22;;;77.95;;
39314;SDS011;28703;44.412;11.918;2023-07-29T00:14:03;73.28;;;68.40;;
39314;SDS011;28703;44.412;11.918;2023-07-29T00:16:29;71.45;;;67.03;;
39314;SDS011;28703;44.412;11.918;2023-07-29T00:18:55;81.13;;;75.97;;
39314;SDS011;28703;44.412;11.918;2023-07-29T00:21:21;68.70;;;64.13;;
39314;SDS011;28703;44.412;11.918;2023-07-29T00:23:46;65.53;;;61.28;;
39314;SDS011;28703;44.412;11.918;2023-07-29T00:26:12;63.40;;;59.28;;
39314;SDS011;28703;44.412;11.918;2023-07-29T00:28:38;66.70;;;62.20;;
39314;SDS011;28703;44.412;11.918;2023-07-29T00:31:04;69.65;;;65.22;;
39314;SDS011;28703;44.412;11.918;2023-07-29T00:33:30;64.95;;;60.35;;
39314;SDS011;28703;44.412;11.918;2023-07-29T00:35:55;27.33;;;25.25;;
39314;SDS011;28703;44.412;11.918;2023-07-29T00:38:21;38.28;;;35.75;;
39314;SDS011;28703;44.412;11.918;2023-07-29T00:40:47;29.13;;;27.15;;
39314;SDS011;28703;44.412;11.918;2023-07-29T00:43:14;35.85;;;33.38;;
39314;SDS011;28703;44.412;11.918;2023-07-29T00:45:40;57.05;;;53.50;;
39314;SDS011;28703;44.412;11.918;2023-07-29T00:48:08;24.05;;;22.17;;
39314;SDS011;28703;44.412;11.918;2023-07-29T00:50:34;40.08;;;36.92;;
39314;SDS011;28703;44.412;11.918;2023-07-29T00:53:00;46.25;;;43.33;;
39314;SDS011;28703;44.412;11.918;2023-07-29T00:55:26;37.55;;;34.78;;
39314;SDS011;28703;44.412;11.918;2023-07-29T00:57:53;33.30;;;31.10;;
39314;SDS011;28703;44.412;11.918;2023-07-29T01:00:20;21.88;;;20.38;;
39314;SDS011;28703;44.412;11.918;2023-07-29T01:02:46;25.17;;;23.40;;
39314;SDS011;28703;44.412;11.918;2023-07-29T01:05:12;25.17;;;23.38;;
39314;SDS011;28703;44.412;11.918;2023-07-29T01:07:58;18.58;;;16.92;;
39314;SDS011;28703;44.412;11.918;2023-07-29T01:13:17;17.45;;;15.93;;
39314;SDS011;28703;44.412;11.918;2023-07-29T01:15:52;14.32;;;13.30;;
39314;SDS011;28703;44.412;11.918;2023-07-29T01:18:26;13.43;;;11.70;;
39314;SDS011;28703;44.412;11.918;2023-07-29T01:20:58;12.15;;;11.05;;
39314;SDS011;28703;44.412;11.918;2023-07-29T01:23:31;12.13;;;11.25;;
39314;SDS011;28703;44.412;11.918;2023-07-29T01:25:58;13.73;;;12.60;;
39314;SDS011;28703;44.412;11.918;2023-07-29T01:28:24;14.32;;;13.18;;
39314;SDS011;28703;44.412;11.918;2023-07-29T01:33:25;11.50;;;10.52;;
39314;SDS011;28703;44.412;11.918;2023-07-29T01:36:01;11.13;;;10.23;;
39314;SDS011;28703;44.412;11.918;2023-07-29T01:38:33;10.88;;;10.02;;
39314;SDS011;28703;44.412;11.918;2023-07-29T01:41:02;10.82;;;9.85;;
39314;SDS011;28703;44.412;11.918;2023-07-29T01:43:31;11.75;;;10.95;;
39314;SDS011;28703;44.412;11.918;2023-07-29T01:45:57;12.05;;;10.82;;
39314;SDS011;28703;44.412;11.918;2023-07-29T01:48:23;11.10;;;10.23;;
39314;SDS011;28703;44.412;11.918;2023-07-29T01:50:50;19.23;;;17.75;;
39314;SDS011;28703;44.412;11.918;2023-07-29T01:53:15;8.93;;;5.90;;
39314;SDS011;28703;44.412;11.918;2023-07-29T01:55:41;10.95;;;10.05;;
39314;SDS011;28703;44.412;11.918;2023-07-29T01:58:08;9.77;;;9.13;;
39314;SDS011;28703;44.412;11.918;2023-07-29T02:00:36;10.27;;;9.38;;
39314;SDS011;28703;44.412;11.918;2023-07-29T02:03:02;10.18;;;9.38;;
39314;SDS011;28703;44.412;11.918;2023-07-29T02:05:28;8.93;;;8.23;;
39314;SDS011;28703;44.412;11.918;2023-07-29T02:07:53;10.05;;;9.13;;
39314;SDS011;28703;44.412;11.918;2023-07-29T02:10:20;10.32;;;9.60;;
39314;SDS011;28703;44.412;11.918;2023-07-29T02:12:46;9.48;;;8.73;;
39314;SDS011;28703;44.412;11.918;2023-07-29T02:15:11;9.45;;;8.57;;
39314;SDS011;28703;44.412;11.918;2023-07-29T02:17:37;11.55;;;10.63;;
39314;SDS011;28703;44.412;11.918;2023-07-29T02:20:03;10.90;;;10.10;;
39314;SDS011;28703;44.412;11.918;2023-07-29T02:22:29;11.07;;;9.10;;
39314;SDS011;28703;44.412;11.918;2023-07-29T02:24:55;8.73;;;7.97;;
39314;SDS011;28703;44.412;11.918;2023-07-29T02:27:21;11.32;;;10.23;;
39314;SDS011;28703;44.412;11.918;2023-07-29T02:29:47;9.23;;;8.60;;
39314;SDS011;28703;44.412;11.918;2023-07-29T02:32:13;9.75;;;9.05;;
39314;SDS011;28703;44.412;11.918;2023-07-29T02:34:39;10.02;;;9.23;;
39314;SDS011;28703;44.412;11.918;2023-07-29T02:37:05;8.63;;;7.80;;
39314;SDS011;28703;44.412;11.918;2023-07-29T02:39:31;8.88;;;8.23;;
39314;SDS011;28703;44.412;11.918;2023-07-29T02:41:58;9.32;;;8.52;;
39314;SDS011;28703;44.412;11.918;2023-07-29T02:44:24;10.00;;;9.30;;
39314;SDS011;28703;44.412;11.918;2023-07-29T02:46:50;10.32;;;9.52;;
39314;SDS011;28703;44.412;11.918;2023-07-29T02:49:17;9.77;;;9.10;;
39314;SDS011;28703;44.412;11.918;2023-07-29T02:51:43;10.02;;;9.38;;
39314;SDS011;28703;44.412;11.918;2023-07-29T02:54:09;10.13;;;9.32;;
39314;SDS011;28703;44.412;11.918;2023-07-29T02:56:35;10.13;;;9.35;;
39314;SDS011;28703;44.412;11.918;2023-07-29T02:59:01;8.93;;;8.30;;
39314;SDS011;28703;44.412;11.918;2023-07-29T03:01:28;9.30;;;8.55;;
39314;SDS011;28703;44.412;11.918;2023-07-29T03:03:53;10.70;;;9.93;;
39314;SDS011;28703;44.412;11.918;2023-07-29T03:06:19;11.48;;;10.68;;
39314;SDS011;28703;44.412;11.918;2023-07-29T03:08:45;9.15;;;8.45;;
39314;SDS011;28703;44.412;11.918;2023-07-29T03:11:14;8.93;;;8.30;;
39314;SDS011;28703;44.412;11.918;2023-07-29T03:13:42;9.97;;;9.17;;
39314;SDS011;28703;44.412;11.918;2023-07-29T03:16:09;9.30;;;8.60;;
39314;SDS011;28703;44.412;11.918;2023-07-29T03:18:38;10.40;;;9.55;;
39314;SDS011;28703;44.412;11.918;2023-07-29T03:21:04;10.07;;;9.25;;
39314;SDS011;28703;44.412;11.918;2023-07-29T03:23:30;10.10;;;9.07;;
39314;SDS011;28703;44.412;11.918;2023-07-29T03:25:58;10.65;;;9.73;;
39314;SDS011;28703;44.412;11.918;2023-07-29T03:28:32;11.32;;;10.35;;
39314;SDS011;28703;44.412;11.918;2023-07-29T03:30:58;11.10;;;10.20;;
39314;SDS011;28703;44.412;11.918;2023-07-29T03:33:25;10.88;;;10.07;;
39314;SDS011;28703;44.412;11.918;2023-07-29T03:35:52;9.45;;;8.75;;
39314;SDS011;28703;44.412;11.918;2023-07-29T03:38:18;10.98;;;9.95;;
39314;SDS011;28703;44.412;11.918;2023-07-29T03:40:44;9.82;;;9.13;;
39314;SDS011;28703;44.412;11.918;2023-07-29T03:43:10;9.65;;;8.95;;
39314;SDS011;28703;44.412;11.918;2023-07-29T03:45:36;10.57;;;9.63;;
39314;SDS011;28703;44.412;11.918;2023-07-29T03:48:03;8.43;;;7.63;;
39314;SDS011;28703;44.412;11.918;2023-07-29T03:50:29;10.50;;;9.40;;
39314;SDS011;28703;44.412;11.918;2023-07-29T03:52:56;10.13;;;9.32;;
39314;SDS011;28703;44.412;11.918;2023-07-29T03:55:22;10.55;;;9.70;;
39314;SDS011;28703;44.412;11.918;2023-07-29T03:57:48;10.18;;;9.38;;
39314;SDS011;28703;44.412;11.918;2023-07-29T04:00:14;10.02;;;9.25;;
39314;SDS011;28703;44.412;11.918;2023-07-29T04:02:42;12.98;;;8.77;;
39314;SDS011;28703;44.412;11.918;2023-07-29T04:05:10;9.05;;;8.38;;
39314;SDS011;28703;44.412;11.918;2023-07-29T04:07:37;9.82;;;9.13;;
39314;SDS011;28703;44.412;11.918;2023-07-29T04:10:03;8.55;;;7.85;;
39314;SDS011;28703;44.412;11.918;2023-07-29T04:12:30;9.82;;;8.98;;
39314;SDS011;28703;44.412;11.918;2023-07-29T04:14:56;10.95;;;10.05;;
39314;SDS011;28703;44.412;11.918;2023-07-29T04:17:22;14.82;;;13.75;;
39314;SDS011;28703;44.412;11.918;2023-07-29T04:19:47;13.90;;;12.90;;
39314;SDS011;28703;44.412;11.918;2023-07-29T04:22:14;13.70;;;12.65;;
39314;SDS011;28703;44.412;11.918;2023-07-29T04:24:41;20.00;;;18.40;;
39314;SDS011;28703;44.412;11.918;2023-07-29T04:27:06;66.72;;;62.45;;
39314;SDS011;28703;44.412;11.918;2023-07-29T04:29:32;77.43;;;72.43;;
39314;SDS011;28703;44.412;11.918;2023-07-29T04:32:00;83.82;;;78.38;;
39314;SDS011;28703;44.412;11.918;2023-07-29T04:34:30;87.07;;;81.55;;
39314;SDS011;28703;44.412;11.918;2023-07-29T04:36:56;77.88;;;72.93;;
39314;SDS011;28703;44.412;11.918;2023-07-29T04:39:23;86.22;;;80.97;;
39314;SDS011;28703;44.412;11.918;2023-07-29T04:41:48;89.53;;;84.07;;
39314;SDS011;28703;44.412;11.918;2023-07-29T04:44:14;93.25;;;87.15;;
39314;SDS011;28703;44.412;11.918;2023-07-29T04:46:40;99.38;;;93.32;;
39314;SDS011;28703;44.412;11.918;2023-07-29T04:49:06;87.68;;;82.13;;
39314;SDS011;28703;44.412;11.918;2023-07-29T04:51:32;95.50;;;89.63;;
39314;SDS011;28703;44.412;11.918;2023-07-29T04:53:58;102.38;;;95.95;;
39314;SDS011;28703;44.412;11.918;2023-07-29T04:56:25;114.88;;;108.03;;
39314;SDS011;28703;44.412;11.918;2023-07-29T04:58:51;115.78;;;108.38;;
39314;SDS011;28703;44.412;11.918;2023-07-29T05:01:17;122.72;;;115.57;;
39314;SDS011;28703;44.412;11.918;2023-07-29T05:03:43;125.82;;;118.18;;
39314;SDS011;28703;44.412;11.918;2023-07-29T05:06:11;131.07;;;123.07;;
39314;SDS011;28703;44.412;11.918;2023-07-29T05:08:37;126.07;;;118.40;;
39314;SDS011;28703;44.412;11.918;2023-07-29T05:11:03;128.60;;;120.78;;
39314;SDS011;28703;44.412;11.918;2023-07-29T05:13:29;132.63;;;124.53;;
39314;SDS011;28703;44.412;11.918;2023-07-29T05:15:55;124.28;;;116.78;;
39314;SDS011;28703;44.412;11.918;2023-07-29T05:18:22;128.57;;;120.93;;
39314;SDS011;28703;44.412;11.918;2023-07-29T05:20:48;129.27;;;121.35;;
39314;SDS011;28703;44.412;11.918;2023-07-29T05:23:15;117.05;;;110.10;;
39314;SDS011;28703;44.412;11.918;2023-07-29T05:25:41;125.97;;;118.10;;
39314;SDS011;28703;44.412;11.918;2023-07-29T05:28:07;134.45;;;126.35;;
39314;SDS011;28703;44.412;11.918;2023-07-29T05:30:33;111.68;;;104.80;;
39314;SDS011;28703;44.412;11.918;2023-07-29T05:33:06;130.10;;;122.20;;
39314;SDS011;28703;44.412;11.918;2023-07-29T05:35:34;101.03;;;95.20;;
39314;SDS011;28703;44.412;11.918;2023-07-29T05:38:00;102.82;;;96.75;;
39314;SDS011;28703;44.412;11.918;2023-07-29T05:40:26;96.82;;;90.85;;
39314;SDS011;28703;44.412;11.918;2023-07-29T05:42:52;128.15;;;120.43;;
39314;SDS011;28703;44.412;11.918;2023-07-29T05:45:18;122.78;;;115.38;;
39314;SDS011;28703;44.412;11.918;2023-07-29T05:47:44;135.65;;;127.63;;
39314;SDS011;28703;44.412;11.918;2023-07-29T05:50:10;107.40;;;100.47;;
39314;SDS011;28703;44.412;11.918;2023-07-29T05:52:36;106.75;;;100.20;;
39314;SDS011;28703;44.412;11.918;2023-07-29T05:55:02;96.38;;;90.55;;
39314;SDS011;28703;44.412;11.918;2023-07-29T05:57:29;99.13;;;92.70;;
39314;SDS011;28703;44.412;11.918;2023-07-29T05:59:55;123.75;;;116.25;;
39314;SDS011;28703;44.412;11.918;2023-07-29T06:02:22;123.18;;;115.50;;
39314;SDS011;28703;44.412;11.918;2023-07-29T06:04:48;126.03;;;118.43;;
39314;SDS011;28703;44.412;11.918;2023-07-29T06:07:13;130.73;;;123.00;;
39314;SDS011;28703;44.412;11.918;2023-07-29T06:09:39;120.53;;;113.47;;
39314;SDS011;28703;44.412;11.918;2023-07-29T06:12:05;120.07;;;112.95;;
39314;SDS011;28703;44.412;11.918;2023-07-29T06:14:32;123.07;;;115.82;;
39314;SDS011;28703;44.412;11.918;2023-07-29T06:16:58;115.00;;;108.15;;
39314;SDS011;28703;44.412;11.918;2023-07-29T06:19:24;117.50;;;110.35;;
39314;SDS011;28703;44.412;11.918;2023-07-29T06:21:50;115.13;;;108.35;;
39314;SDS011;28703;44.412;11.918;2023-07-29T06:24:17;122.95;;;115.43;;
39314;SDS011;28703;44.412;11.918;2023-07-29T06:26:43;119.60;;;112.47;;
39314;SDS011;28703;44.412;11.918;2023-07-29T06:29:08;127.40;;;119.45;;
39314;SDS011;28703;44.412;11.918;2023-07-29T06:31:34;116.43;;;109.18;;
39314;SDS011;28703;44.412;11.918;2023-07-29T06:34:00;111.88;;;105.05;;
39314;SDS011;28703;44.412;11.918;2023-07-29T06:36:26;109.50;;;102.20;;
39314;SDS011;28703;44.412;11.918;2023-07-29T06:38:52;110.75;;;104.15;;
39314;SDS011;28703;44.412;11.918;2023-07-29T06:41:17;120.50;;;113.18;;
39314;SDS011;28703;44.412;11.918;2023-07-29T06:43:43;122.22;;;114.72;;
39314;SDS011;28703;44.412;11.918;2023-07-29T06:46:09;123.53;;;116.10;;
39314;SDS011;28703;44.412;11.918;2023-07-29T06:48:35;98.00;;;91.93;;
39314;SDS011;28703;44.412;11.918;2023-07-29T06:51:01;90.05;;;84.28;;
39314;SDS011;28703;44.412;11.918;2023-07-29T06:53:27;58.13;;;54.22;;
39314;SDS011;28703;44.412;11.918;2023-07-29T06:55:53;49.13;;;45.67;;
39314;SDS011;28703;44.412;11.918;2023-07-29T06:58:19;48.05;;;44.83;;
39314;SDS011;28703;44.412;11.918;2023-07-29T07:00:46;42.72;;;39.65;;
39314;SDS011;28703;44.412;11.918;2023-07-29T07:03:12;44.67;;;41.92;;
39314;SDS011;28703;44.412;11.918;2023-07-29T07:05:38;45.67;;;42.80;;
39314;SDS011;28703;44.412;11.918;2023-07-29T07:08:04;22.27;;;20.70;;
39314;SDS011;28703;44.412;11.918;2023-07-29T07:10:30;25.52;;;23.67;;
39314;SDS011;28703;44.412;11.918;2023-07-29T07:12:57;21.75;;;20.15;;
39314;SDS011;28703;44.412;11.918;2023-07-29T07:15:22;18.55;;;17.02;;
39314;SDS011;28703;44.412;11.918;2023-07-29T07:17:48;21.65;;;19.75;;
39314;SDS011;28703;44.412;11.918;2023-07-29T07:20:14;16.70;;;15.52;;
39314;SDS011;28703;44.412;11.918;2023-07-29T07:22:41;14.73;;;13.38;;
39314;SDS011;28703;44.412;11.918;2023-07-29T07:25:08;15.35;;;13.77;;
39314;SDS011;28703;44.412;11.918;2023-07-29T07:27:34;16.45;;;14.80;;
39314;SDS011;28703;44.412;11.918;2023-07-29T07:30:01;15.02;;;13.60;;
39314;SDS011;28703;44.412;11.918;2023-07-29T07:32:27;15.05;;;13.77;;
39314;SDS011;28703;44.412;11.918;2023-07-29T07:34:53;14.23;;;13.05;;
39314;SDS011;28703;44.412;11.918;2023-07-29T07:37:19;14.75;;;13.55;;
39314;SDS011;28703;44.412;11.918;2023-07-29T07:39:45;18.45;;;17.25;;
39314;SDS011;28703;44.412;11.918;2023-07-29T07:42:11;19.25;;;17.90;;
39314;SDS011;28703;44.412;11.918;2023-07-29T07:44:36;20.42;;;18.95;;
39314;SDS011;28703;44.412;11.918;2023-07-29T07:47:02;18.40;;;17.27;;
39314;SDS011;28703;44.412;11.918;2023-07-29T07:49:28;22.65;;;21.05;;
39314;SDS011;28703;44.412;11.918;2023-07-29T07:51:54;20.10;;;18.70;;
39314;SDS011;28703;44.412;11.918;2023-07-29T07:54:20;21.67;;;20.20;;
39314;SDS011;28703;44.412;11.918;2023-07-29T07:56:46;18.95;;;17.77;;
39314;SDS011;28703;44.412;11.918;2023-07-29T07:59:13;20.85;;;19.05;;
39314;SDS011;28703;44.412;11.918;2023-07-29T08:01:39;20.95;;;19.50;;
39314;SDS011;28703;44.412;11.918;2023-07-29T08:04:05;23.65;;;21.85;;
39314;SDS011;28703;44.412;11.918;2023-07-29T08:06:31;21.33;;;19.90;;
39314;SDS011;28703;44.412;11.918;2023-07-29T08:08:58;22.85;;;21.40;;
39314;SDS011;28703;44.412;11.918;2023-07-29T08:11:24;23.05;;;21.38;;
39314;SDS011;28703;44.412;11.918;2023-07-29T08:13:50;27.67;;;26.08;;
39314;SDS011;28703;44.412;11.918;2023-07-29T08:16:17;23.90;;;22.38;;
39314;SDS011;28703;44.412;11.918;2023-07-29T08:18:43;25.15;;;23.30;;
39314;SDS011;28703;44.412;11.918;2023-07-29T08:21:09;23.85;;;22.05;;
39314;SDS011;28703;44.412;11.918;2023-07-29T08:23:35;22.88;;;21.30;;
39314;SDS011;28703;44.412;11.918;2023-07-29T08:26:03;24.20;;;22.50;;
39314;SDS011;28703;44.412;11.918;2023-07-29T08:28:31;24.88;;;23.27;;
39314;SDS011;28703;44.412;11.918;2023-07-29T08:31:01;90.85;;;85.03;;
39314;SDS011;28703;44.412;11.918;2023-07-29T08:33:27;104.22;;;97.50;;
39314;SDS011;28703;44.412;11.918;2023-07-29T08:35:54;105.88;;;99.50;;
39314;SDS011;28703;44.412;11.918;2023-07-29T08:38:21;85.05;;;79.88;;
39314;SDS011;28703;44.412;11.918;2023-07-29T08:43:52;95.15;;;89.00;;
39314;SDS011;28703;44.412;11.918;2023-07-29T08:46:31;91.28;;;85.40;;
39314;SDS011;28703;44.412;11.918;2023-07-29T08:48:58;98.80;;;92.82;;
39314;SDS011;28703;44.412;11.918;2023-07-29T08:51:27;98.97;;;92.85;;
39314;SDS011;28703;44.412;11.918;2023-07-29T08:53:54;94.63;;;88.78;;
39314;SDS011;28703;44.412;11.918;2023-07-29T08:56:20;96.25;;;90.30;;
39314;SDS011;28703;44.412;11.918;2023-07-29T08:58:47;103.75;;;97.47;;
39314;SDS011;28703;44.412;11.918;2023-07-29T09:01:14;95.10;;;89.05;;
39314;SDS011;28703;44.412;11.918;2023-07-29T09:03:40;101.88;;;95.80;;
39314;SDS011;28703;44.412;11.918;2023-07-29T09:06:06;104.20;;;97.57;;
39314;SDS011;28703;44.412;11.918;2023-07-29T09:08:33;97.88;;;91.93;;
39314;SDS011;28703;44.412;11.918;2023-07-29T09:10:59;98.13;;;91.97;;
39314;SDS011;28703;44.412;11.918;2023-07-29T09:13:26;94.90;;;88.90;;
39314;SDS011;28703;44.412;11.918;2023-07-29T09:15:55;93.40;;;87.75;;
39314;SDS011;28703;44.412;11.918;2023-07-29T09:18:26;110.35;;;103.68;;
39314;SDS011;28703;44.412;11.918;2023-07-29T09:20:52;104.10;;;97.72;;
39314;SDS011;28703;44.412;11.918;2023-07-29T09:23:18;102.38;;;96.30;;
39314;SDS011;28703;44.412;11.918;2023-07-29T09:25:47;92.97;;;87.43;;
39314;SDS011;28703;44.412;11.918;2023-07-29T09:28:14;108.72;;;101.85;;
39314;SDS011;28703;44.412;11.918;2023-07-29T09:30:42;96.80;;;90.80;;
39314;SDS011;28703;44.412;11.918;2023-07-29T09:33:10;97.85;;;91.75;;
39314;SDS011;28703;44.412;11.918;2023-07-29T09:35:36;92.40;;;86.57;;
39314;SDS011;28703;44.412;11.918;2023-07-29T09:38:03;100.07;;;93.93;;
39314;SDS011;28703;44.412;11.918;2023-07-29T09:40:37;92.18;;;86.40;;
39314;SDS011;28703;44.412;11.918;2023-07-29T09:43:05;95.10;;;89.28;;
39314;SDS011;28703;44.412;11.918;2023-07-29T09:45:33;91.68;;;86.03;;
39314;SDS011;28703;44.412;11.918;2023-07-29T09:48:00;87.40;;;82.20;;
39314;SDS011;28703;44.412;11.918;2023-07-29T09:50:28;92.53;;;86.72;;
39314;SDS011;28703;44.412;11.918;2023-07-29T09:52:55;87.85;;;82.10;;
39314;SDS011;28703;44.412;11.918;2023-07-29T09:55:24;96.05;;;90.05;;
39314;SDS011;28703;44.412;11.918;2023-07-29T09:57:56;96.20;;;90.05;;
39314;SDS011;28703;44.412;11.918;2023-07-29T10:00:29;96.05;;;90.22;;
39314;SDS011;28703;44.412;11.918;2023-07-29T10:02:57;87.32;;;81.85;;
39314;SDS011;28703;44.412;11.918;2023-07-29T10:05:25;94.43;;;88.57;;
39314;SDS011;28703;44.412;11.918;2023-07-29T10:07:52;77.28;;;72.63;;
39314;SDS011;28703;44.412;11.918;2023-07-29T10:10:20;89.43;;;83.85;;
39314;SDS011;28703;44.412;11.918;2023-07-29T10:12:46;84.10;;;78.53;;
39314;SDS011;28703;44.412;11.918;2023-07-29T10:15:12;87.22;;;81.68;;
39314;SDS011;28703;44.412;11.918;2023-07-29T10:17:39;89.57;;;84.05;;
39314;SDS011;28703;44.412;11.918;2023-07-29T10:20:09;89.85;;;84.07;;
39314;SDS011;28703;44.412;11.918;2023-07-29T10:22:39;70.18;;;65.53;;
39314;SDS011;28703;44.412;11.918;2023-07-29T10:25:15;58.97;;;55.35;;
39314;SDS011;28703;44.412;11.918;2023-07-29T10:30:11;77.63;;;72.95;;
39314;SDS011;28703;44.412;11.918;2023-07-29T10:32:38;81.68;;;76.45;;
39314;SDS011;28703;44.412;11.918;2023-07-29T10:35:07;71.82;;;67.18;;
39314;SDS011;28703;44.412;11.918;2023-07-29T10:37:34;82.43;;;77.47;;
39314;SDS011;28703;44.412;11.918;2023-07-29T10:40:00;80.25;;;75.05;;
39314;SDS011;28703;44.412;11.918;2023-07-29T10:42:30;70.25;;;65.70;;
39314;SDS011;28703;44.412;11.918;2023-07-29T10:44:56;53.92;;;50.58;;
39314;SDS011;28703;44.412;11.918;2023-07-29T10:49:53;67.55;;;63.55;;
39314;SDS011;28703;44.412;11.918;2023-07-29T10:53:02;69.70;;;65.20;;
39314;SDS011;28703;44.412;11.918;2023-07-29T10:55:32;68.82;;;64.53;;
39314;SDS011;28703;44.412;11.918;2023-07-29T10:58:13;64.82;;;60.53;;
39314;SDS011;28703;44.412;11.918;2023-07-29T11:00:42;63.20;;;59.08;;
39314;SDS011;28703;44.412;11.918;2023-07-29T11:03:09;62.28;;;57.85;;
39314;SDS011;28703;44.412;11.918;2023-07-29T11:05:42;55.47;;;51.67;;
39314;SDS011;28703;44.412;11.918;2023-07-29T11:08:16;68.03;;;63.90;;
39314;SDS011;28703;44.412;11.918;2023-07-29T11:10:43;70.47;;;65.93;;
39314;SDS011;28703;44.412;11.918;2023-07-29T11:13:09;69.72;;;64.97;;
39314;SDS011;28703;44.412;11.918;2023-07-29T11:15:37;66.85;;;62.50;;
39314;SDS011;28703;44.412;11.918;2023-07-29T11:18:04;65.63;;;61.65;;
39314;SDS011;28703;44.412;11.918;2023-07-29T11:20:34;69.15;;;64.50;;
39314;SDS011;28703;44.412;11.918;2023-07-29T11:23:01;65.85;;;61.53;;
39314;SDS011;28703;44.412;11.918;2023-07-29T11:25:29;70.10;;;65.65;;
39314;SDS011;28703;44.412;11.918;2023-07-29T11:27:57;69.82;;;65.32;;
39314;SDS011;28703;44.412;11.918;2023-07-29T11:30:24;64.18;;;59.88;;
39314;SDS011;28703;44.412;11.918;2023-07-29T11:32:53;64.45;;;60.28;;
39314;SDS011;28703;44.412;11.918;2023-07-29T11:35:20;57.42;;;53.78;;
39314;SDS011;28703;44.412;11.918;2023-07-29T11:37:49;58.60;;;54.85;;
39314;SDS011;28703;44.412;11.918;2023-07-29T11:40:17;58.40;;;54.72;;
39314;SDS011;28703;44.412;11.918;2023-07-29T11:42:45;59.22;;;55.42;;
39314;SDS011;28703;44.412;11.918;2023-07-29T11:45:12;57.63;;;53.85;;
39314;SDS011;28703;44.412;11.918;2023-07-29T11:47:38;63.42;;;59.25;;
39314;SDS011;28703;44.412;11.918;2023-07-29T11:50:05;64.38;;;60.17;;
39314;SDS011;28703;44.412;11.918;2023-07-29T11:52:34;59.67;;;55.17;;
39314;SDS011;28703;44.412;11.918;2023-07-29T11:55:05;59.88;;;55.95;;
39314;SDS011;28703;44.412;11.918;2023-07-29T11:57:33;54.90;;;51.42;;
39314;SDS011;28703;44.412;11.918;2023-07-29T12:00:02;57.57;;;53.73;;
39314;SDS011;28703;44.412;11.918;2023-07-29T12:02:36;66.03;;;61.67;;
39314;SDS011;28703;44.412;11.918;2023-07-29T12:05:04;59.78;;;55.85;;
39314;SDS011;28703;44.412;11.918;2023-07-29T12:07:31;56.60;;;53.13;;
39314;SDS011;28703;44.412;11.918;2023-07-29T12:09:58;59.92;;;56.08;;
39314;SDS011;28703;44.412;11.918;2023-07-29T12:12:24;53.92;;;50.38;;
39314;SDS011;28703;44.412;11.918;2023-07-29T12:14:51;64.03;;;59.63;;
39314;SDS011;28703;44.412;11.918;2023-07-29T12:17:19;61.80;;;57.90;;
39314;SDS011;28703;44.412;11.918;2023-07-29T12:19:45;65.60;;;61.00;;
39314;SDS011;28703;44.412;11.918;2023-07-29T12:22:11;59.47;;;55.38;;
39314;SDS011;28703;44.412;11.918;2023-07-29T12:24:38;57.75;;;54.03;;
39314;SDS011;28703;44.412;11.918;2023-07-29T12:27:05;52.05;;;48.75;;
39314;SDS011;28703;44.412;11.918;2023-07-29T12:29:40;58.60;;;54.70;;
39314;SDS011;28703;44.412;11.918;2023-07-29T12:32:11;55.47;;;51.72;;
39314;SDS011;28703;44.412;11.918;2023-07-29T12:34:38;55.90;;;52.30;;
39314;SDS011;28703;44.412;11.918;2023-07-29T12:37:04;57.05;;;53.50;;
39314;SDS011;28703;44.412;11.918;2023-07-29T12:39:35;59.67;;;55.75;;
39314;SDS011;28703;44.412;11.918;2023-07-29T12:42:07;60.50;;;56.72;;
39314;SDS011;28703;44.412;11.918;2023-07-29T12:44:34;56.95;;;53.22;;
39314;SDS011;28703;44.412;11.918;2023-07-29T12:47:01;58.03;;;54.17;;
39314;SDS011;28703;44.412;11.918;2023-07-29T12:49:29;57.15;;;53.42;;
39314;SDS011;28703;44.412;11.918;2023-07-29T12:51:58;55.00;;;51.42;;
39314;SDS011;28703;44.412;11.918;2023-07-29T12:54:25;56.25;;;52.58;;
39314;SDS011;28703;44.412;11.918;2023-07-29T12:56:51;53.70;;;50.50;;
39314;SDS011;28703;44.412;11.918;2023-07-29T12:59:17;51.60;;;48.28;;
39314;SDS011;28703;44.412;11.918;2023-07-29T13:01:43;56.28;;;52.72;;
39314;SDS011;28703;44.412;11.918;2023-07-29T13:04:09;55.42;;;51.83;;
39314;SDS011;28703;44.412;11.918;2023-07-29T13:06:35;52.03;;;48.70;;
39314;SDS011;28703;44.412;11.918;2023-07-29T13:09:01;60.13;;;56.30;;
39314;SDS011;28703;44.412;11.918;2023-07-29T13:50:29;46.10;;;43.15;;
39314;SDS011;28703;44.412;11.918;2023-07-29T13:52:54;46.75;;;43.75;;
39314;SDS011;28703;44.412;11.918;2023-07-29T13:55:20;47.13;;;43.83;;
39314;SDS011;28703;44.412;11.918;2023-07-29T13:57:46;49.92;;;46.78;;
39314;SDS011;28703;44.412;11.918;2023-07-29T14:00:20;45.15;;;42.38;;
39314;SDS011;28703;44.412;11.918;2023-07-29T14:02:46;48.35;;;45.28;;
39314;SDS011;28703;44.412;11.918;2023-07-29T14:05:13;46.25;;;43.42;;
39314;SDS011;28703;44.412;11.918;2023-07-29T14:07:39;47.28;;;44.35;;
39314;SDS011;28703;44.412;11.918;2023-07-29T14:10:05;40.95;;;38.28;;
39314;SDS011;28703;44.412;11.918;2023-07-29T14:12:32;26.65;;;25.15;;
39314;SDS011;28703;44.412;11.918;2023-07-29T14:14:59;28.48;;;26.55;;
39314;SDS011;28703;44.412;11.918;2023-07-29T14:17:25;32.22;;;29.92;;
39314;SDS011;28703;44.412;11.918;2023-07-29T14:19:54;27.23;;;25.52;;
39314;SDS011;28703;44.412;11.918;2023-07-29T14:22:22;21.45;;;20.05;;
39314;SDS011;28703;44.412;11.918;2023-07-29T14:24:48;27.92;;;25.63;;
39314;SDS011;28703;44.412;11.918;2023-07-29T14:27:19;28.80;;;27.10;;
39314;SDS011;28703;44.412;11.918;2023-07-29T14:29:45;30.42;;;28.30;;
39314;SDS011;28703;44.412;11.918;2023-07-29T14:32:11;28.73;;;26.63;;
39314;SDS011;28703;44.412;11.918;2023-07-29T14:34:37;17.13;;;15.77;;
39314;SDS011;28703;44.412;11.918;2023-07-29T14:37:06;14.77;;;13.65;;
39314;SDS011;28703;44.412;11.918;2023-07-29T14:39:34;13.52;;;12.38;;
39314;SDS011;28703;44.412;11.918;2023-07-29T14:42:00;18.30;;;16.50;;
39314;SDS011;28703;44.412;11.918;2023-07-29T14:44:26;12.82;;;11.70;;
39314;SDS011;28703;44.412;11.918;2023-07-29T14:46:52;14.60;;;13.38;;
39314;SDS011;28703;44.412;11.918;2023-07-29T14:49:19;11.50;;;10.68;;
39314;SDS011;28703;44.412;11.918;2023-07-29T14:51:45;12.30;;;11.48;;
39314;SDS011;28703;44.412;11.918;2023-07-29T14:54:11;11.63;;;10.75;;
39314;SDS011;28703;44.412;11.918;2023-07-29T14:56:37;12.15;;;9.93;;
39314;SDS011;28703;44.412;11.918;2023-07-29T14:59:03;10.50;;;9.50;;
39314;SDS011;28703;44.412;11.918;2023-07-29T15:01:29;32.08;;;29.35;;